Sagamihara, Japan
Current Conditions -  °F | °C
As of 4:58 PM on Tuesday 27 Jan 2015 (Local Time) from RJTY Reporting Station
Overcast Overcast  
Wind Chill: 52°   Ceiling: 4000
Heat Index: 52°   Visibility: 10mi
Dew Point: 35°   Wind: 12mph
Humidity: 51%   Direction: 20°NNE
Pressure: 29.8"   Gusts: NA
Location:  35.58°N, 139.38°E
Report Text: RJTY 270758Z AUTO 02010KT 10SM OVC040 11/01 A2980 RMK AO2 SLP098 T01130014
Loading
Personal Weather Stations






























Interactive Weather Map New forecast layout! Learn more

10-Day Weather Forecast

Advertisements
Track Severe Weather on mobile